sensor_id;sensor_type;location;lat;lon;timestamp;P1;durP1;ratioP1;P2;durP2;ratioP2
4202;SDS011;2115;51.038;7.006;2022-09-21T00:00:49;87.77;;;32.97;;
4202;SDS011;2115;51.038;7.006;2022-09-21T00:03:15;85.67;;;33.33;;
4202;SDS011;2115;51.038;7.006;2022-09-21T00:05:41;87.83;;;33.87;;
4202;SDS011;2115;51.038;7.006;2022-09-21T00:08:07;89.50;;;34.07;;
4202;SDS011;2115;51.038;7.006;2022-09-21T00:10:34;88.87;;;34.53;;
4202;SDS011;2115;51.038;7.006;2022-09-21T00:12:59;89.57;;;33.47;;
4202;SDS011;2115;51.038;7.006;2022-09-21T00:15:27;89.77;;;34.97;;
4202;SDS011;2115;51.038;7.006;2022-09-21T00:17:53;95.27;;;36.53;;
4202;SDS011;2115;51.038;7.006;2022-09-21T00:20:20;90.87;;;35.07;;
4202;SDS011;2115;51.038;7.006;2022-09-21T00:22:45;90.87;;;35.17;;
4202;SDS011;2115;51.038;7.006;2022-09-21T00:25:14;91.90;;;35.67;;
4202;SDS011;2115;51.038;7.006;2022-09-21T00:27:40;91.00;;;35.53;;
4202;SDS011;2115;51.038;7.006;2022-09-21T00:30:06;94.83;;;36.23;;
4202;SDS011;2115;51.038;7.006;2022-09-21T00:32:32;92.47;;;36.13;;
4202;SDS011;2115;51.038;7.006;2022-09-21T00:34:59;91.67;;;35.53;;
4202;SDS011;2115;51.038;7.006;2022-09-21T00:37:25;91.40;;;35.53;;
4202;SDS011;2115;51.038;7.006;2022-09-21T00:39:51;93.67;;;36.07;;
4202;SDS011;2115;51.038;7.006;2022-09-21T00:42:21;93.83;;;36.30;;
4202;SDS011;2115;51.038;7.006;2022-09-21T00:44:50;91.20;;;35.40;;
4202;SDS011;2115;51.038;7.006;2022-09-21T00:47:27;91.30;;;35.33;;
4202;SDS011;2115;51.038;7.006;2022-09-21T00:50:09;100.20;;;39.03;;
4202;SDS011;2115;51.038;7.006;2022-09-21T00:52:39;89.67;;;35.60;;
4202;SDS011;2115;51.038;7.006;2022-09-21T00:55:08;143.80;;;49.27;;
4202;SDS011;2115;51.038;7.006;2022-09-21T00:57:37;80.13;;;31.63;;
4202;SDS011;2115;51.038;7.006;2022-09-21T01:00:04;92.37;;;36.20;;
4202;SDS011;2115;51.038;7.006;2022-09-21T01:02:32;95.53;;;36.73;;
4202;SDS011;2115;51.038;7.006;2022-09-21T01:04:59;93.90;;;36.33;;
4202;SDS011;2115;51.038;7.006;2022-09-21T01:07:25;95.13;;;36.43;;
4202;SDS011;2115;51.038;7.006;2022-09-21T01:09:53;102.77;;;38.53;;
4202;SDS011;2115;51.038;7.006;2022-09-21T01:25:37;106.47;;;39.90;;
4202;SDS011;2115;51.038;7.006;2022-09-21T01:28:27;111.43;;;40.90;;
4202;SDS011;2115;51.038;7.006;2022-09-21T01:31:11;118.63;;;44.07;;
4202;SDS011;2115;51.038;7.006;2022-09-21T01:33:41;103.23;;;39.07;;
4202;SDS011;2115;51.038;7.006;2022-09-21T01:36:11;117.23;;;43.43;;
4202;SDS011;2115;51.038;7.006;2022-09-21T01:38:47;130.03;;;46.57;;
4202;SDS011;2115;51.038;7.006;2022-09-21T01:41:14;102.63;;;38.87;;
4202;SDS011;2115;51.038;7.006;2022-09-21T01:43:43;102.33;;;38.40;;
4202;SDS011;2115;51.038;7.006;2022-09-21T01:46:12;111.23;;;40.87;;
4202;SDS011;2115;51.038;7.006;2022-09-21T01:48:41;103.17;;;38.90;;
4202;SDS011;2115;51.038;7.006;2022-09-21T01:51:09;101.93;;;37.07;;
4202;SDS011;2115;51.038;7.006;2022-09-21T01:53:44;94.10;;;36.07;;
4202;SDS011;2115;51.038;7.006;2022-09-21T01:58:45;110.53;;;42.90;;
4202;SDS011;2115;51.038;7.006;2022-09-21T02:01:17;96.67;;;37.33;;
4202;SDS011;2115;51.038;7.006;2022-09-21T02:03:46;86.43;;;34.97;;
4202;SDS011;2115;51.038;7.006;2022-09-21T02:06:17;94.80;;;37.57;;
4202;SDS011;2115;51.038;7.006;2022-09-21T02:08:42;89.17;;;35.53;;
4202;SDS011;2115;51.038;7.006;2022-09-21T02:11:08;86.83;;;35.37;;
4202;SDS011;2115;51.038;7.006;2022-09-21T02:13:37;93.00;;;36.83;;
4202;SDS011;2115;51.038;7.006;2022-09-21T02:24:07;94.17;;;37.10;;
4202;SDS011;2115;51.038;7.006;2022-09-21T02:26:49;93.03;;;36.20;;
4202;SDS011;2115;51.038;7.006;2022-09-21T02:32:22;90.13;;;35.83;;
4202;SDS011;2115;51.038;7.006;2022-09-21T02:34:54;81.90;;;32.10;;
4202;SDS011;2115;51.038;7.006;2022-09-21T02:37:34;80.23;;;31.80;;
4202;SDS011;2115;51.038;7.006;2022-09-21T02:40:09;111.37;;;41.33;;
4202;SDS011;2115;51.038;7.006;2022-09-21T02:43:05;116.57;;;44.67;;
4202;SDS011;2115;51.038;7.006;2022-09-21T02:45:39;92.97;;;37.33;;
4202;SDS011;2115;51.038;7.006;2022-09-21T02:48:10;90.53;;;36.60;;
4202;SDS011;2115;51.038;7.006;2022-09-21T02:50:40;105.10;;;41.20;;
4202;SDS011;2115;51.038;7.006;2022-09-21T02:53:08;91.17;;;36.77;;
4202;SDS011;2115;51.038;7.006;2022-09-21T02:55:35;92.80;;;37.30;;
4202;SDS011;2115;51.038;7.006;2022-09-21T02:58:02;91.93;;;36.60;;
4202;SDS011;2115;51.038;7.006;2022-09-21T03:00:29;91.93;;;37.03;;
4202;SDS011;2115;51.038;7.006;2022-09-21T03:02:55;102.17;;;39.80;;
4202;SDS011;2115;51.038;7.006;2022-09-21T03:05:20;93.93;;;37.47;;
4202;SDS011;2115;51.038;7.006;2022-09-21T03:07:46;92.57;;;37.03;;
4202;SDS011;2115;51.038;7.006;2022-09-21T03:10:12;93.90;;;37.13;;
4202;SDS011;2115;51.038;7.006;2022-09-21T03:12:37;95.97;;;37.57;;
4202;SDS011;2115;51.038;7.006;2022-09-21T03:15:03;93.20;;;37.03;;
4202;SDS011;2115;51.038;7.006;2022-09-21T03:17:29;111.40;;;40.60;;
4202;SDS011;2115;51.038;7.006;2022-09-21T03:19:54;117.20;;;41.50;;
4202;SDS011;2115;51.038;7.006;2022-09-21T03:22:21;89.83;;;34.67;;
4202;SDS011;2115;51.038;7.006;2022-09-21T03:24:47;108.47;;;40.50;;
4202;SDS011;2115;51.038;7.006;2022-09-21T03:27:13;95.20;;;37.17;;
4202;SDS011;2115;51.038;7.006;2022-09-21T03:29:43;99.97;;;38.13;;
4202;SDS011;2115;51.038;7.006;2022-09-21T03:32:08;96.83;;;37.60;;
4202;SDS011;2115;51.038;7.006;2022-09-21T03:34:35;100.20;;;38.33;;
4202;SDS011;2115;51.038;7.006;2022-09-21T03:37:01;95.07;;;37.27;;
4202;SDS011;2115;51.038;7.006;2022-09-21T03:39:28;95.10;;;37.57;;
4202;SDS011;2115;51.038;7.006;2022-09-21T03:41:53;94.40;;;37.10;;
4202;SDS011;2115;51.038;7.006;2022-09-21T03:44:20;117.90;;;41.23;;
4202;SDS011;2115;51.038;7.006;2022-09-21T03:46:45;98.93;;;37.97;;
4202;SDS011;2115;51.038;7.006;2022-09-21T03:49:11;114.63;;;40.47;;
4202;SDS011;2115;51.038;7.006;2022-09-21T03:51:36;120.73;;;45.37;;
4202;SDS011;2115;51.038;7.006;2022-09-21T03:54:03;96.67;;;37.53;;
4202;SDS011;2115;51.038;7.006;2022-09-21T03:56:28;93.03;;;36.93;;
4202;SDS011;2115;51.038;7.006;2022-09-21T03:58:53;124.67;;;46.87;;
4202;SDS011;2115;51.038;7.006;2022-09-21T04:01:19;94.27;;;37.00;;
4202;SDS011;2115;51.038;7.006;2022-09-21T04:03:44;126.53;;;45.70;;
4202;SDS011;2115;51.038;7.006;2022-09-21T04:06:10;102.37;;;39.13;;
4202;SDS011;2115;51.038;7.006;2022-09-21T04:08:36;93.53;;;34.37;;
4202;SDS011;2115;51.038;7.006;2022-09-21T04:11:08;93.43;;;36.90;;
4202;SDS011;2115;51.038;7.006;2022-09-21T04:13:35;107.27;;;40.67;;
4202;SDS011;2115;51.038;7.006;2022-09-21T04:16:01;99.57;;;38.63;;
4202;SDS011;2115;51.038;7.006;2022-09-21T04:18:26;86.43;;;32.97;;
4202;SDS011;2115;51.038;7.006;2022-09-21T04:20:51;95.97;;;37.37;;
4202;SDS011;2115;51.038;7.006;2022-09-21T04:23:17;92.03;;;36.43;;
4202;SDS011;2115;51.038;7.006;2022-09-21T04:25:42;100.37;;;38.53;;
4202;SDS011;2115;51.038;7.006;2022-09-21T04:28:08;92.53;;;36.93;;
4202;SDS011;2115;51.038;7.006;2022-09-21T04:30:33;91.20;;;36.77;;
4202;SDS011;2115;51.038;7.006;2022-09-21T04:32:59;93.40;;;37.23;;
4202;SDS011;2115;51.038;7.006;2022-09-21T04:35:24;92.03;;;36.83;;
4202;SDS011;2115;51.038;7.006;2022-09-21T04:37:50;93.33;;;37.00;;
4202;SDS011;2115;51.038;7.006;2022-09-21T04:40:18;91.83;;;36.87;;
4202;SDS011;2115;51.038;7.006;2022-09-21T04:42:47;96.53;;;38.00;;
4202;SDS011;2115;51.038;7.006;2022-09-21T04:45:15;117.20;;;45.63;;
4202;SDS011;2115;51.038;7.006;2022-09-21T04:47:40;100.80;;;39.70;;
4202;SDS011;2115;51.038;7.006;2022-09-21T04:50:06;99.10;;;39.20;;
4202;SDS011;2115;51.038;7.006;2022-09-21T04:52:31;99.17;;;39.57;;
4202;SDS011;2115;51.038;7.006;2022-09-21T04:54:57;98.23;;;39.00;;
4202;SDS011;2115;51.038;7.006;2022-09-21T04:57:22;105.23;;;40.40;;
4202;SDS011;2115;51.038;7.006;2022-09-21T04:59:47;99.67;;;39.73;;
4202;SDS011;2115;51.038;7.006;2022-09-21T05:02:13;100.33;;;39.40;;
4202;SDS011;2115;51.038;7.006;2022-09-21T05:04:38;100.07;;;39.23;;
4202;SDS011;2115;51.038;7.006;2022-09-21T05:07:03;107.43;;;41.13;;
4202;SDS011;2115;51.038;7.006;2022-09-21T05:09:29;99.57;;;39.03;;
4202;SDS011;2115;51.038;7.006;2022-09-21T05:12:13;105.77;;;41.20;;
4202;SDS011;2115;51.038;7.006;2022-09-21T05:14:38;103.10;;;40.37;;
4202;SDS011;2115;51.038;7.006;2022-09-21T05:17:04;103.67;;;40.33;;
4202;SDS011;2115;51.038;7.006;2022-09-21T05:19:30;100.43;;;39.30;;
4202;SDS011;2115;51.038;7.006;2022-09-21T05:21:55;101.23;;;39.70;;
4202;SDS011;2115;51.038;7.006;2022-09-21T05:24:20;99.03;;;39.40;;
4202;SDS011;2115;51.038;7.006;2022-09-21T05:26:46;107.03;;;41.37;;
4202;SDS011;2115;51.038;7.006;2022-09-21T05:29:11;100.03;;;39.70;;
4202;SDS011;2115;51.038;7.006;2022-09-21T05:31:38;103.50;;;40.27;;
4202;SDS011;2115;51.038;7.006;2022-09-21T05:37:01;104.07;;;40.30;;
4202;SDS011;2115;51.038;7.006;2022-09-21T05:39:30;107.30;;;41.20;;
4202;SDS011;2115;51.038;7.006;2022-09-21T05:41:56;98.10;;;39.00;;
4202;SDS011;2115;51.038;7.006;2022-09-21T05:44:21;107.00;;;41.50;;
4202;SDS011;2115;51.038;7.006;2022-09-21T05:46:53;98.93;;;38.83;;
4202;SDS011;2115;51.038;7.006;2022-09-21T05:49:32;120.80;;;45.70;;
4202;SDS011;2115;51.038;7.006;2022-09-21T05:52:14;103.33;;;39.93;;
4202;SDS011;2115;51.038;7.006;2022-09-21T05:57:27;108.80;;;41.80;;
4202;SDS011;2115;51.038;7.006;2022-09-21T06:00:13;104.60;;;40.00;;
4202;SDS011;2115;51.038;7.006;2022-09-21T06:05:32;134.60;;;47.70;;
4202;SDS011;2115;51.038;7.006;2022-09-21T06:07:57;102.37;;;40.00;;
4202;SDS011;2115;51.038;7.006;2022-09-21T06:10:22;112.37;;;42.80;;
4202;SDS011;2115;51.038;7.006;2022-09-21T06:12:49;125.23;;;45.77;;
4202;SDS011;2115;51.038;7.006;2022-09-21T06:15:14;120.17;;;42.67;;
4202;SDS011;2115;51.038;7.006;2022-09-21T06:17:40;103.23;;;38.87;;
4202;SDS011;2115;51.038;7.006;2022-09-21T06:20:05;112.80;;;42.80;;
4202;SDS011;2115;51.038;7.006;2022-09-21T06:22:32;115.23;;;43.23;;
4202;SDS011;2115;51.038;7.006;2022-09-21T06:24:58;117.23;;;43.77;;
4202;SDS011;2115;51.038;7.006;2022-09-21T06:27:23;100.67;;;37.77;;
4202;SDS011;2115;51.038;7.006;2022-09-21T06:29:48;113.93;;;42.83;;
4202;SDS011;2115;51.038;7.006;2022-09-21T06:32:14;111.30;;;42.90;;
4202;SDS011;2115;51.038;7.006;2022-09-21T06:34:39;124.63;;;44.23;;
4202;SDS011;2115;51.038;7.006;2022-09-21T06:37:04;157.43;;;53.63;;
4202;SDS011;2115;51.038;7.006;2022-09-21T06:39:30;116.77;;;43.23;;
4202;SDS011;2115;51.038;7.006;2022-09-21T06:41:55;130.37;;;46.73;;
4202;SDS011;2115;51.038;7.006;2022-09-21T06:44:21;105.67;;;38.50;;
4202;SDS011;2115;51.038;7.006;2022-09-21T06:46:46;117.97;;;43.50;;
4202;SDS011;2115;51.038;7.006;2022-09-21T06:49:12;133.03;;;45.13;;
4202;SDS011;2115;51.038;7.006;2022-09-21T06:51:37;116.30;;;42.27;;
4202;SDS011;2115;51.038;7.006;2022-09-21T06:54:02;112.87;;;41.30;;
4202;SDS011;2115;51.038;7.006;2022-09-21T06:56:28;115.13;;;42.37;;
4202;SDS011;2115;51.038;7.006;2022-09-21T06:58:53;112.27;;;41.63;;
4202;SDS011;2115;51.038;7.006;2022-09-21T07:01:19;115.27;;;41.87;;
4202;SDS011;2115;51.038;7.006;2022-09-21T07:03:47;118.10;;;42.53;;
4202;SDS011;2115;51.038;7.006;2022-09-21T07:06:13;108.13;;;40.90;;
4202;SDS011;2115;51.038;7.006;2022-09-21T07:08:39;112.97;;;41.30;;
4202;SDS011;2115;51.038;7.006;2022-09-21T07:11:06;121.80;;;45.37;;
4202;SDS011;2115;51.038;7.006;2022-09-21T07:13:34;110.23;;;41.03;;
4202;SDS011;2115;51.038;7.006;2022-09-21T07:16:03;111.20;;;41.63;;
4202;SDS011;2115;51.038;7.006;2022-09-21T07:18:31;111.53;;;41.40;;
4202;SDS011;2115;51.038;7.006;2022-09-21T07:20:57;109.73;;;40.77;;
4202;SDS011;2115;51.038;7.006;2022-09-21T07:23:23;112.77;;;41.57;;
4202;SDS011;2115;51.038;7.006;2022-09-21T07:25:48;111.63;;;41.37;;
4202;SDS011;2115;51.038;7.006;2022-09-21T07:28:16;114.17;;;41.40;;
4202;SDS011;2115;51.038;7.006;2022-09-21T07:30:42;112.10;;;40.77;;
4202;SDS011;2115;51.038;7.006;2022-09-21T07:33:08;109.87;;;40.70;;
4202;SDS011;2115;51.038;7.006;2022-09-21T07:35:33;108.07;;;40.00;;
4202;SDS011;2115;51.038;7.006;2022-09-21T07:38:00;105.73;;;37.83;;
4202;SDS011;2115;51.038;7.006;2022-09-21T07:40:27;105.00;;;36.53;;
4202;SDS011;2115;51.038;7.006;2022-09-21T07:42:56;111.47;;;39.97;;
4202;SDS011;2115;51.038;7.006;2022-09-21T07:45:22;116.20;;;41.60;;
4202;SDS011;2115;51.038;7.006;2022-09-21T07:47:48;123.47;;;43.90;;
4202;SDS011;2115;51.038;7.006;2022-09-21T07:50:13;112.07;;;40.77;;
4202;SDS011;2115;51.038;7.006;2022-09-21T07:52:39;117.27;;;41.80;;
4202;SDS011;2115;51.038;7.006;2022-09-21T07:55:04;124.47;;;42.37;;
4202;SDS011;2115;51.038;7.006;2022-09-21T07:57:30;122.77;;;43.00;;
4202;SDS011;2115;51.038;7.006;2022-09-21T08:00:14;116.70;;;41.70;;
4202;SDS011;2115;51.038;7.006;2022-09-21T08:02:40;116.83;;;41.20;;
4202;SDS011;2115;51.038;7.006;2022-09-21T08:05:06;117.20;;;41.27;;
4202;SDS011;2115;51.038;7.006;2022-09-21T08:07:31;118.73;;;41.53;;
4202;SDS011;2115;51.038;7.006;2022-09-21T08:09:57;120.97;;;42.50;;
4202;SDS011;2115;51.038;7.006;2022-09-21T08:12:22;122.17;;;42.00;;
4202;SDS011;2115;51.038;7.006;2022-09-21T08:14:48;118.97;;;41.50;;
4202;SDS011;2115;51.038;7.006;2022-09-21T08:17:13;123.13;;;42.27;;
4202;SDS011;2115;51.038;7.006;2022-09-21T08:19:39;126.63;;;42.57;;
4202;SDS011;2115;51.038;7.006;2022-09-21T08:22:04;125.17;;;42.33;;
4202;SDS011;2115;51.038;7.006;2022-09-21T08:24:30;130.07;;;43.00;;
4202;SDS011;2115;51.038;7.006;2022-09-21T08:26:55;138.07;;;45.30;;
4202;SDS011;2115;51.038;7.006;2022-09-21T08:29:23;128.17;;;42.47;;
4202;SDS011;2115;51.038;7.006;2022-09-21T08:31:48;124.57;;;42.07;;
4202;SDS011;2115;51.038;7.006;2022-09-21T08:34:14;131.63;;;43.63;;
4202;SDS011;2115;51.038;7.006;2022-09-21T08:36:40;130.37;;;42.90;;
4202;SDS011;2115;51.038;7.006;2022-09-21T08:39:06;127.27;;;42.23;;
4202;SDS011;2115;51.038;7.006;2022-09-21T08:44:17;134.40;;;41.97;;
4202;SDS011;2115;51.038;7.006;2022-09-21T08:46:47;153.20;;;49.30;;
4202;SDS011;2115;51.038;7.006;2022-09-21T08:49:20;128.57;;;42.33;;
4202;SDS011;2115;51.038;7.006;2022-09-21T08:51:52;156.97;;;46.83;;
4202;SDS011;2115;51.038;7.006;2022-09-21T08:54:41;129.73;;;40.83;;
4202;SDS011;2115;51.038;7.006;2022-09-21T08:57:12;166.23;;;51.73;;
4202;SDS011;2115;51.038;7.006;2022-09-21T08:59:42;137.43;;;43.73;;
4202;SDS011;2115;51.038;7.006;2022-09-21T09:07:54;157.20;;;47.90;;
4202;SDS011;2115;51.038;7.006;2022-09-21T09:21:05;162.30;;;49.83;;
4202;SDS011;2115;51.038;7.006;2022-09-21T09:23:45;162.10;;;48.73;;
4202;SDS011;2115;51.038;7.006;2022-09-21T09:26:17;152.83;;;45.33;;
4202;SDS011;2115;51.038;7.006;2022-09-21T09:28:48;139.73;;;44.10;;
4202;SDS011;2115;51.038;7.006;2022-09-21T09:31:18;201.60;;;57.40;;
4202;SDS011;2115;51.038;7.006;2022-09-21T09:33:57;182.43;;;51.40;;
4202;SDS011;2115;51.038;7.006;2022-09-21T09:36:28;228.17;;;63.50;;
4202;SDS011;2115;51.038;7.006;2022-09-21T09:38:57;141.47;;;41.47;;
4202;SDS011;2115;51.038;7.006;2022-09-21T09:47:03;176.40;;;49.40;;
4202;SDS011;2115;51.038;7.006;2022-09-21T09:52:08;194.87;;;53.77;;
4202;SDS011;2115;51.038;7.006;2022-09-21T09:54:35;191.10;;;52.80;;
4202;SDS011;2115;51.038;7.006;2022-09-21T09:57:04;161.33;;;45.20;;
4202;SDS011;2115;51.038;7.006;2022-09-21T09:59:43;158.47;;;43.80;;
4202;SDS011;2115;51.038;7.006;2022-09-21T10:04:54;169.03;;;45.83;;
4202;SDS011;2115;51.038;7.006;2022-09-21T10:07:34;158.10;;;42.63;;
4202;SDS011;2115;51.038;7.006;2022-09-21T10:12:53;187.80;;;48.57;;
4202;SDS011;2115;51.038;7.006;2022-09-21T10:15:19;172.13;;;46.57;;
4202;SDS011;2115;51.038;7.006;2022-09-21T10:17:55;207.13;;;52.03;;
4202;SDS011;2115;51.038;7.006;2022-09-21T10:20:21;168.10;;;44.17;;
4202;SDS011;2115;51.038;7.006;2022-09-21T10:22:47;201.30;;;50.73;;
4202;SDS011;2115;51.038;7.006;2022-09-21T10:25:18;211.23;;;54.40;;
4202;SDS011;2115;51.038;7.006;2022-09-21T10:27:45;187.67;;;49.77;;
4202;SDS011;2115;51.038;7.006;2022-09-21T10:30:34;310.23;;;94.63;;
4202;SDS011;2115;51.038;7.006;2022-09-21T10:33:02;34.87;;;12.07;;
4202;SDS011;2115;51.038;7.006;2022-09-21T10:35:28;32.13;;;10.37;;
4202;SDS011;2115;51.038;7.006;2022-09-21T10:40:42;20.40;;;6.97;;
4202;SDS011;2115;51.038;7.006;2022-09-21T10:46:06;22.93;;;8.33;;
4202;SDS011;2115;51.038;7.006;2022-09-21T10:48:31;11.47;;;5.80;;
4202;SDS011;2115;51.038;7.006;2022-09-21T10:51:00;11.70;;;4.70;;
4202;SDS011;2115;51.038;7.006;2022-09-21T10:53:30;13.53;;;5.80;;
4202;SDS011;2115;51.038;7.006;2022-09-21T10:56:02;14.17;;;6.97;;
4202;SDS011;2115;51.038;7.006;2022-09-21T10:58:29;51.50;;;15.63;;
4202;SDS011;2115;51.038;7.006;2022-09-21T11:00:56;382.43;;;110.90;;
4202;SDS011;2115;51.038;7.006;2022-09-21T11:03:36;10.27;;;5.13;;
4202;SDS011;2115;51.038;7.006;2022-09-21T11:11:51;265.67;;;66.03;;
4202;SDS011;2115;51.038;7.006;2022-09-21T11:17:11;447.13;;;127.03;;
4202;SDS011;2115;51.038;7.006;2022-09-21T11:28:00;468.97;;;125.23;;
4202;SDS011;2115;51.038;7.006;2022-09-21T11:30:42;172.90;;;52.13;;
4202;SDS011;2115;51.038;7.006;2022-09-21T11:33:37;507.47;;;156.93;;
4202;SDS011;2115;51.038;7.006;2022-09-21T11:38:38;9.13;;;6.80;;
4202;SDS011;2115;51.038;7.006;2022-09-21T11:46:48;159.97;;;55.93;;
4202;SDS011;2115;51.038;7.006;2022-09-21T11:49:16;158.37;;;55.83;;
4202;SDS011;2115;51.038;7.006;2022-09-21T11:52:00;164.70;;;56.73;;
4202;SDS011;2115;51.038;7.006;2022-09-21T12:00:20;439.13;;;138.90;;
4202;SDS011;2115;51.038;7.006;2022-09-21T12:17:41;170.53;;;61.50;;
4202;SDS011;2115;51.038;7.006;2022-09-21T12:21:17;593.13;;;246.93;;
4202;SDS011;2115;51.038;7.006;2022-09-21T12:23:38;70.17;;;32.93;;
4202;SDS011;2115;51.038;7.006;2022-09-21T12:26:06;590.40;;;228.53;;
4202;SDS011;2115;51.038;7.006;2022-09-21T12:28:38;567.67;;;209.87;;
4202;SDS011;2115;51.038;7.006;2022-09-21T12:34:04;516.37;;;218.73;;
4202;SDS011;2115;51.038;7.006;2022-09-21T12:36:39;596.40;;;258.97;;
4202;SDS011;2115;51.038;7.006;2022-09-21T12:39:11;196.37;;;68.10;;
4202;SDS011;2115;51.038;7.006;2022-09-21T12:44:27;531.23;;;210.67;;
4202;SDS011;2115;51.038;7.006;2022-09-21T12:47:02;519.27;;;210.50;;
4202;SDS011;2115;51.038;7.006;2022-09-21T12:49:35;540.07;;;203.67;;
4202;SDS011;2115;51.038;7.006;2022-09-21T12:52:04;534.77;;;201.60;;
4202;SDS011;2115;51.038;7.006;2022-09-21T13:00:06;600.70;;;227.70;;
4202;SDS011;2115;51.038;7.006;2022-09-21T13:02:53;497.67;;;165.13;;
4202;SDS011;2115;51.038;7.006;2022-09-21T13:08:25;568.17;;;186.27;;
4202;SDS011;2115;51.038;7.006;2022-09-21T13:13:24;573.93;;;171.23;;
4202;SDS011;2115;51.038;7.006;2022-09-21T13:15:58;18.43;;;6.20;;
4202;SDS011;2115;51.038;7.006;2022-09-21T13:18:28;514.50;;;145.77;;
4202;SDS011;2115;51.038;7.006;2022-09-21T13:20:59;514.63;;;140.47;;
4202;SDS011;2115;51.038;7.006;2022-09-21T13:23:35;199.43;;;62.67;;
4202;SDS011;2115;51.038;7.006;2022-09-21T13:26:09;185.93;;;56.57;;
4202;SDS011;2115;51.038;7.006;2022-09-21T13:28:40;420.10;;;121.23;;
4202;SDS011;2115;51.038;7.006;2022-09-21T13:36:39;14.33;;;5.27;;
4202;SDS011;2115;51.038;7.006;2022-09-21T13:39:13;21.93;;;7.20;;
4202;SDS011;2115;51.038;7.006;2022-09-21T13:41:41;6.20;;;4.77;;
4202;SDS011;2115;51.038;7.006;2022-09-21T13:44:48;10.03;;;5.70;;
4202;SDS011;2115;51.038;7.006;2022-09-21T13:46:58;7.27;;;5.00;;
4202;SDS011;2115;51.038;7.006;2022-09-21T13:49:24;62.73;;;19.13;;
4202;SDS011;2115;51.038;7.006;2022-09-21T13:52:03;432.33;;;129.83;;
4202;SDS011;2115;51.038;7.006;2022-09-21T13:54:35;369.47;;;104.50;;
4202;SDS011;2115;51.038;7.006;2022-09-21T13:57:18;162.43;;;50.37;;
4202;SDS011;2115;51.038;7.006;2022-09-21T13:59:46;121.00;;;37.13;;
4202;SDS011;2115;51.038;7.006;2022-09-21T14:02:30;59.10;;;17.47;;
4202;SDS011;2115;51.038;7.006;2022-09-21T14:05:05;154.90;;;47.50;;
4202;SDS011;2115;51.038;7.006;2022-09-21T14:07:32;19.93;;;6.70;;
4202;SDS011;2115;51.038;7.006;2022-09-21T14:09:59;293.47;;;82.93;;
4202;SDS011;2115;51.038;7.006;2022-09-21T14:12:30;398.73;;;117.07;;
4202;SDS011;2115;51.038;7.006;2022-09-21T14:17:43;448.27;;;153.27;;
4202;SDS011;2115;51.038;7.006;2022-09-21T14:20:28;439.07;;;157.40;;
4202;SDS011;2115;51.038;7.006;2022-09-21T14:25:54;581.30;;;255.37;;
4202;SDS011;2115;51.038;7.006;2022-09-21T14:30:59;500.13;;;196.63;;
4202;SDS011;2115;51.038;7.006;2022-09-21T14:33:46;545.70;;;221.40;;
4202;SDS011;2115;51.038;7.006;2022-09-21T14:36:24;560.73;;;253.97;;
4202;SDS011;2115;51.038;7.006;2022-09-21T14:39:00;536.93;;;243.57;;
4202;SDS011;2115;51.038;7.006;2022-09-21T14:41:29;571.73;;;257.87;;
4202;SDS011;2115;51.038;7.006;2022-09-21T14:44:01;601.30;;;274.70;;
4202;SDS011;2115;51.038;7.006;2022-09-21T14:49:27;604.70;;;271.13;;
4202;SDS011;2115;51.038;7.006;2022-09-21T14:54:42;567.07;;;208.23;;
4202;SDS011;2115;51.038;7.006;2022-09-21T14:57:19;619.57;;;260.37;;
4202;SDS011;2115;51.038;7.006;2022-09-21T15:02:31;11.53;;;6.93;;
4202;SDS011;2115;51.038;7.006;2022-09-21T15:07:50;176.90;;;50.13;;
4202;SDS011;2115;51.038;7.006;2022-09-21T15:13:35;551.70;;;173.50;;
4202;SDS011;2115;51.038;7.006;2022-09-21T15:16:06;524.00;;;161.30;;
4202;SDS011;2115;51.038;7.006;2022-09-21T15:18:41;194.27;;;60.27;;
4202;SDS011;2115;51.038;7.006;2022-09-21T15:21:19;497.67;;;160.97;;
4202;SDS011;2115;51.038;7.006;2022-09-21T15:23:48;542.53;;;189.87;;
4202;SDS011;2115;51.038;7.006;2022-09-21T15:26:17;485.67;;;167.97;;
4202;SDS011;2115;51.038;7.006;2022-09-21T15:28:47;485.47;;;167.63;;
4202;SDS011;2115;51.038;7.006;2022-09-21T15:31:15;571.33;;;214.13;;
4202;SDS011;2115;51.038;7.006;2022-09-21T15:33:42;575.53;;;204.60;;
4202;SDS011;2115;51.038;7.006;2022-09-21T15:36:11;586.83;;;202.70;;
4202;SDS011;2115;51.038;7.006;2022-09-21T15:38:36;382.43;;;116.10;;
4202;SDS011;2115;51.038;7.006;2022-09-21T15:41:03;572.00;;;175.57;;
4202;SDS011;2115;51.038;7.006;2022-09-21T15:43:29;147.07;;;39.93;;
4202;SDS011;2115;51.038;7.006;2022-09-21T15:48:25;188.00;;;64.27;;
4202;SDS011;2115;51.038;7.006;2022-09-21T15:50:53;173.33;;;55.33;;
4202;SDS011;2115;51.038;7.006;2022-09-21T15:53:25;20.57;;;18.60;;
4202;SDS011;2115;51.038;7.006;2022-09-21T15:55:54;8.47;;;4.30;;
4202;SDS011;2115;51.038;7.006;2022-09-21T15:58:24;11.57;;;6.30;;
4202;SDS011;2115;51.038;7.006;2022-09-21T16:00:51;19.47;;;7.53;;
4202;SDS011;2115;51.038;7.006;2022-09-21T16:03:19;15.70;;;7.00;;
4202;SDS011;2115;51.038;7.006;2022-09-21T16:05:47;4.87;;;4.43;;
4202;SDS011;2115;51.038;7.006;2022-09-21T16:08:25;8.70;;;5.50;;
4202;SDS011;2115;51.038;7.006;2022-09-21T16:10:52;27.27;;;8.37;;
4202;SDS011;2115;51.038;7.006;2022-09-21T16:13:35;16.50;;;6.53;;
4202;SDS011;2115;51.038;7.006;2022-09-21T16:16:19;9.13;;;5.23;;
4202;SDS011;2115;51.038;7.006;2022-09-21T16:18:48;5.23;;;4.47;;
4202;SDS011;2115;51.038;7.006;2022-09-21T16:23:58;24.57;;;7.10;;
4202;SDS011;2115;51.038;7.006;2022-09-21T16:26:36;12.07;;;4.77;;
4202;SDS011;2115;51.038;7.006;2022-09-21T16:29:22;7.60;;;5.00;;
4202;SDS011;2115;51.038;7.006;2022-09-21T16:31:50;239.50;;;69.03;;
4202;SDS011;2115;51.038;7.006;2022-09-21T16:34:20;156.83;;;45.63;;
4202;SDS011;2115;51.038;7.006;2022-09-21T16:36:48;154.93;;;48.83;;
4202;SDS011;2115;51.038;7.006;2022-09-21T16:39:15;9.43;;;5.07;;
4202;SDS011;2115;51.038;7.006;2022-09-21T16:41:43;116.37;;;38.17;;
4202;SDS011;2115;51.038;7.006;2022-09-21T16:44:13;21.40;;;7.33;;
4202;SDS011;2115;51.038;7.006;2022-09-21T16:46:54;6.73;;;4.87;;
4202;SDS011;2115;51.038;7.006;2022-09-21T16:49:21;58.80;;;16.20;;
4202;SDS011;2115;51.038;7.006;2022-09-21T16:51:48;6.20;;;4.67;;
4202;SDS011;2115;51.038;7.006;2022-09-21T16:54:17;5.37;;;4.43;;
4202;SDS011;2115;51.038;7.006;2022-09-21T16:56:44;8.93;;;5.17;;
4202;SDS011;2115;51.038;7.006;2022-09-21T16:59:14;73.57;;;19.97;;
4202;SDS011;2115;51.038;7.006;2022-09-21T17:01:43;163.03;;;50.73;;
4202;SDS011;2115;51.038;7.006;2022-09-21T17:04:09;336.37;;;96.53;;
4202;SDS011;2115;51.038;7.006;2022-09-21T17:06:37;381.97;;;111.83;;
4202;SDS011;2115;51.038;7.006;2022-09-21T17:09:14;369.90;;;107.97;;
4202;SDS011;2115;51.038;7.006;2022-09-21T17:11:41;329.33;;;91.77;;
4202;SDS011;2115;51.038;7.006;2022-09-21T17:14:09;305.27;;;89.77;;
4202;SDS011;2115;51.038;7.006;2022-09-21T17:16:37;381.53;;;109.97;;
4202;SDS011;2115;51.038;7.006;2022-09-21T17:19:02;363.60;;;98.83;;
4202;SDS011;2115;51.038;7.006;2022-09-21T17:21:27;424.87;;;127.83;;
4202;SDS011;2115;51.038;7.006;2022-09-21T17:23:53;154.87;;;47.67;;
4202;SDS011;2115;51.038;7.006;2022-09-21T17:26:18;154.07;;;48.07;;
4202;SDS011;2115;51.038;7.006;2022-09-21T17:28:45;8.43;;;4.90;;
4202;SDS011;2115;51.038;7.006;2022-09-21T17:31:10;10.03;;;5.33;;
4202;SDS011;2115;51.038;7.006;2022-09-21T17:33:37;385.67;;;118.47;;
4202;SDS011;2115;51.038;7.006;2022-09-21T17:36:03;392.07;;;117.90;;
4202;SDS011;2115;51.038;7.006;2022-09-21T17:38:32;351.13;;;104.37;;
4202;SDS011;2115;51.038;7.006;2022-09-21T17:40:59;282.97;;;86.97;;